Time;durP1;ratioP1;P1;durP2;ratioP2;P2;SDS_P1;SDS_P2;PMS_P1;PMS_P2;Temp;Humidity;BMP_temperature;BMP_pressure;BME280_temperature;BME280_humidity;BME280_pressure;Samples;Min_cycle;Max_cycle;Signal;HPM_P1;HPM_P2
2022/08/22 00:02:25;;;;;;;8.20;2.43;;;18.30;99.90;;;;;;5069877;28;20435;-76
2022/08/22 00:05:09;;;;;;;4.57;2.60;;;18.30;99.90;;;;;;5074251;28;20437;-76
2022/08/22 00:07:48;;;;;;;5.73;2.60;;;18.40;99.90;;;;;;5075653;28;20393;-76
2022/08/22 00:10:28;;;;;;;4.70;2.90;;;18.40;99.90;;;;;;5074469;28;20420;-76
2022/08/22 00:13:21;;;;;;;6.17;2.97;;;18.30;99.90;;;;;;5075631;28;20416;-76
2022/08/22 00:15:57;;;;;;;4.43;2.50;;;18.30;99.90;;;;;;5075525;28;20920;-76
2022/08/22 00:18:43;;;;;;;9.10;3.20;;;18.30;99.90;;;;;;5075333;28;20448;-77
2022/08/22 00:21:20;;;;;;;8.03;2.83;;;18.30;99.90;;;;;;5074865;28;20931;-76
2022/08/22 00:24:24;;;;;;;5.47;2.40;;;18.20;99.90;;;;;;5075155;28;20402;-76
2022/08/22 00:26:56;;;;;;;6.37;3.00;;;18.20;99.90;;;;;;5075088;28;20412;-76
2022/08/22 00:29:36;;;;;;;5.30;2.63;;;18.00;99.90;;;;;;5073989;28;20394;-76
2022/08/22 00:32:14;;;;;;;4.73;2.73;;;18.00;99.90;;;;;;5075256;28;20431;-76
2022/08/22 00:34:52;;;;;;;9.03;4.70;;;18.00;99.90;;;;;;5075017;28;20436;-76
2022/08/22 00:37:26;;;;;;;8.87;2.30;;;18.00;99.90;;;;;;5057096;28;21064;-76
2022/08/22 00:40:01;;;;;;;12.97;3.50;;;18.00;99.90;;;;;;5074560;28;20439;-76
2022/08/22 00:42:57;;;;;;;4.47;3.20;;;18.00;99.90;;;;;;5074785;28;20386;-77
2022/08/22 00:45:58;;;;;;;6.70;3.30;;;18.00;99.90;;;;;;5075364;28;20503;-76
2022/08/22 00:48:56;;;;;;;4.43;2.70;;;17.80;99.90;;;;;;5074732;28;20465;-76
2022/08/22 00:51:40;;;;;;;4.20;2.57;;;17.80;99.90;;;;;;5074299;28;20426;-76
2022/08/22 00:54:27;;;;;;;4.63;2.50;;;17.70;99.90;;;;;;5074623;28;20404;-76
2022/08/22 00:57:02;;;;;;;8.60;3.10;;;17.60;99.90;;;;;;5074347;28;20513;-75
2022/08/22 00:59:50;;;;;;;6.20;3.20;;;17.50;99.90;;;;;;5074334;28;20411;-76
2022/08/22 01:02:44;;;;;;;3.20;2.73;;;17.50;99.90;;;;;;5073022;28;20414;-76
2022/08/22 01:05:34;;;;;;;6.33;3.20;;;17.40;99.90;;;;;;5074309;28;20428;-76
2022/08/22 01:08:24;;;;;;;8.60;3.40;;;17.30;99.90;;;;;;5074314;28;20390;-75
2022/08/22 01:11:11;;;;;;;4.10;2.97;;;17.20;99.90;;;;;;5073877;28;20463;-75
2022/08/22 01:13:49;;;;;;;7.73;3.50;;;17.20;99.90;;;;;;5074320;28;20491;-76
2022/08/22 01:16:29;;;;;;;6.60;2.80;;;17.20;99.90;;;;;;5074438;28;20460;-76
2022/08/22 01:19:27;;;;;;;6.20;4.23;;;17.20;99.90;;;;;;5072789;28;20390;-77
2022/08/22 01:22:32;;;;;;;6.97;3.40;;;17.20;99.90;;;;;;5072760;28;20398;-76
2022/08/22 01:25:32;;;;;;;6.80;3.27;;;17.10;99.90;;;;;;5074116;28;20386;-76
2022/08/22 01:28:35;;;;;;;6.17;3.80;;;17.00;99.90;;;;;;5074098;28;20402;-76
2022/08/22 01:31:52;;;;;;;4.70;3.37;;;17.00;99.90;;;;;;5073547;28;20434;-76
2022/08/22 01:34:32;;;;;;;8.27;3.43;;;16.90;99.90;;;;;;5050665;28;20418;-76
2022/08/22 01:37:25;;;;;;;10.40;3.60;;;16.90;99.90;;;;;;5073765;28;20532;-77
2022/08/22 01:40:13;;;;;;;7.00;2.97;;;16.80;99.90;;;;;;5073563;28;20403;-76
2022/08/22 01:42:50;;;;;;;5.50;3.30;;;16.70;99.90;;;;;;5073764;28;20421;-76
2022/08/22 01:45:53;;;;;;;3.70;2.83;;;16.70;99.90;;;;;;5073613;28;20385;-76
2022/08/22 01:48:39;;;;;;;6.63;3.60;;;16.60;99.90;;;;;;5073841;28;20410;-76
2022/08/22 01:51:27;;;;;;;8.20;3.10;;;16.60;99.90;;;;;;5073141;28;20405;-76
2022/08/22 01:53:52;;;;;;;7.33;2.80;;;16.60;99.90;;;;;;5073569;28;20749;-76
2022/08/22 01:56:21;;;;;;;3.90;2.50;;;16.50;99.90;;;;;;5073385;28;20410;-76
2022/08/22 01:59:05;;;;;;;6.27;3.37;;;16.50;99.90;;;;;;5073475;28;20196;-76
2022/08/22 02:01:46;;;;;;;5.17;3.40;;;16.50;99.90;;;;;;5072857;28;20489;-76
2022/08/22 02:04:29;;;;;;;5.63;2.57;;;16.40;99.90;;;;;;5072115;28;20386;-76
2022/08/22 02:07:18;;;;;;;10.13;3.23;;;16.40;99.90;;;;;;5073420;28;20426;-76
2022/08/22 02:10:08;;;;;;;7.33;3.73;;;16.40;99.90;;;;;;5072989;28;20390;-76
2022/08/22 02:12:59;;;;;;;5.90;3.93;;;16.30;99.90;;;;;;5073399;28;20389;-76
2022/08/22 02:15:37;;;;;;;4.63;3.00;;;16.30;99.90;;;;;;5071928;28;20415;-76
2022/08/22 02:18:07;;;;;;;11.90;3.63;;;16.30;99.90;;;;;;5073164;28;20554;-76
2022/08/22 02:21:10;;;;;;;4.33;3.53;;;16.30;99.90;;;;;;5072933;28;20422;-76
2022/08/22 02:23:57;;;;;;;5.87;3.87;;;16.20;99.90;;;;;;5071683;28;20430;-76
2022/08/22 02:26:42;;;;;;;4.40;3.27;;;16.20;99.90;;;;;;5073198;28;20409;-76
2022/08/22 02:29:17;;;;;;;6.97;3.50;;;16.20;99.90;;;;;;5073318;28;20412;-76
2022/08/22 02:32:03;;;;;;;4.83;3.60;;;16.10;99.90;;;;;;5072683;28;20443;-76
2022/08/22 02:34:32;;;;;;;10.00;3.47;;;16.00;99.90;;;;;;5076604;28;20429;-76
2022/08/22 02:37:03;;;;;;;7.33;3.53;;;15.70;99.90;;;;;;5077271;28;20867;-76
2022/08/22 02:39:38;;;;;;;11.57;4.30;;;15.60;99.90;;;;;;5077048;28;20418;-76
2022/08/22 02:42:20;;;;;;;8.57;4.03;;;15.70;99.90;;;;;;5077194;28;20462;-76
2022/08/22 02:45:18;;;;;;;7.30;4.03;;;15.70;99.90;;;;;;5075880;28;20423;-76
2022/08/22 02:47:58;;;;;;;5.30;3.63;;;15.70;99.90;;;;;;5077012;28;20392;-76
2022/08/22 02:50:42;;;;;;;5.13;3.50;;;15.80;99.90;;;;;;5076715;28;20501;-76
2022/08/22 02:53:21;;;;;;;6.90;3.77;;;15.80;99.90;;;;;;5075780;28;20401;-76
2022/08/22 02:56:03;;;;;;;5.17;3.73;;;15.70;99.90;;;;;;5076609;28;20424;-77
2022/08/22 02:58:53;;;;;;;10.67;4.70;;;15.70;99.90;;;;;;5076752;28;20465;-76
2022/08/22 03:01:28;;;;;;;5.77;3.80;;;15.70;99.90;;;;;;5076467;28;20782;-76
2022/08/22 03:04:33;;;;;;;6.97;3.90;;;15.70;99.90;;;;;;5076450;28;20471;-76
2022/08/22 03:07:02;;;;;;;6.57;4.50;;;15.70;99.90;;;;;;5064656;28;20394;-76
2022/08/22 03:09:59;;;;;;;5.00;3.60;;;15.60;99.90;;;;;;5076701;28;20374;-76
2022/08/22 03:12:50;;;;;;;4.47;3.47;;;15.60;99.90;;;;;;5051058;28;20967;-76
2022/08/22 03:15:45;;;;;;;5.33;3.50;;;15.60;99.90;;;;;;5076697;28;20923;-76
2022/08/22 03:18:52;;;;;;;5.60;3.53;;;15.50;99.90;;;;;;5075973;28;20463;-76
2022/08/22 03:21:44;;;;;;;7.50;4.10;;;15.50;99.90;;;;;;5075600;28;20497;-76
2022/08/22 03:24:29;;;;;;;8.03;3.50;;;15.60;99.90;;;;;;5074824;28;20406;-76
2022/08/22 03:27:16;;;;;;;5.37;3.73;;;15.60;99.90;;;;;;5076225;28;20399;-76
2022/08/22 03:29:57;;;;;;;6.03;3.80;;;15.50;99.90;;;;;;5075980;28;20383;-76
2022/08/22 03:32:44;;;;;;;7.80;4.20;;;15.60;99.90;;;;;;5076200;28;20378;-76
2022/08/22 03:35:20;;;;;;;6.37;3.80;;;15.60;99.90;;;;;;5075900;28;20415;-76
2022/08/22 03:37:49;;;;;;;7.40;4.10;;;15.60;99.90;;;;;;5076171;28;20477;-76
2022/08/22 03:40:33;;;;;;;4.20;3.60;;;15.50;99.90;;;;;;5075606;28;20525;-76
2022/08/22 03:43:17;;;;;;;8.77;4.23;;;15.50;99.90;;;;;;5076016;28;20387;-77
2022/08/22 03:46:04;;;;;;;6.83;3.50;;;15.50;99.90;;;;;;5075311;28;20464;-76
2022/08/22 03:49:06;;;;;;;5.00;3.90;;;15.60;99.90;;;;;;5077265;28;20415;-76
2022/08/22 03:52:01;;;;;;;6.70;3.43;;;15.60;99.90;;;;;;5074183;28;20801;-76
2022/08/22 03:54:41;;;;;;;8.17;4.63;;;15.50;99.90;;;;;;5075760;28;20389;-76
2022/08/22 03:57:39;;;;;;;4.77;4.03;;;15.50;99.90;;;;;;5075645;28;20429;-76
2022/08/22 04:00:38;;;;;;;4.90;3.60;;;15.20;99.90;;;;;;5075244;28;20386;-76
2022/08/22 04:03:15;;;;;;;6.60;5.07;;;15.20;99.90;;;;;;5075588;28;20404;-75
2022/08/22 04:05:56;;;;;;;5.57;3.83;;;15.30;99.90;;;;;;5075525;28;20424;-77
2022/08/22 04:08:38;;;;;;;4.90;3.20;;;15.30;99.90;;;;;;5075319;28;20413;-76
2022/08/22 04:11:07;;;;;;;4.17;3.70;;;15.40;99.90;;;;;;5075022;28;20436;-76
2022/08/22 04:14:02;;;;;;;6.23;3.80;;;15.40;99.90;;;;;;5074053;28;20381;-76
2022/08/22 04:17:05;;;;;;;5.60;3.77;;;15.40;99.90;;;;;;5060021;28;20420;-76
2022/08/22 04:19:49;;;;;;;5.67;3.90;;;15.50;99.90;;;;;;5074884;28;20502;-77
2022/08/22 04:22:46;;;;;;;4.60;3.80;;;15.40;99.90;;;;;;5074704;28;20435;-76
2022/08/22 04:25:22;;;;;;;6.30;3.80;;;15.30;99.90;;;;;;5074079;28;20445;-76
2022/08/22 04:28:21;;;;;;;7.47;4.30;;;15.30;99.90;;;;;;5075184;28;20443;-76
2022/08/22 04:31:06;;;;;;;5.30;4.00;;;15.20;99.90;;;;;;5074497;28;20478;-76
2022/08/22 04:33:56;;;;;;;5.13;4.03;;;15.00;99.90;;;;;;5074998;28;20511;-76
2022/08/22 04:36:39;;;;;;;7.77;3.80;;;14.90;99.90;;;;;;5074889;28;20407;-76
2022/08/22 04:39:17;;;;;;;6.90;4.20;;;14.90;99.90;;;;;;5074943;28;20553;-76
2022/08/22 04:42:04;;;;;;;6.87;4.03;;;14.90;99.90;;;;;;5074619;28;20826;-76
2022/08/22 04:44:46;;;;;;;6.20;3.83;;;15.00;99.90;;;;;;5074802;28;20467;-75
2022/08/22 04:47:53;;;;;;;8.77;4.30;;;15.00;99.90;;;;;;5074989;28;20460;-76
2022/08/22 04:50:30;;;;;;;5.60;3.60;;;15.10;99.90;;;;;;5054282;28;20443;-76
2022/08/22 04:53:31;;;;;;;7.60;4.50;;;15.10;99.90;;;;;;5074783;28;20388;-77
2022/08/22 04:56:21;;;;;;;7.67;4.13;;;15.10;99.90;;;;;;5074239;28;20406;-77
2022/08/22 04:59:00;;;;;;;10.00;5.10;;;15.10;99.90;;;;;;5074349;28;20461;-77
2022/08/22 05:01:43;;;;;;;5.07;4.37;;;14.90;99.90;;;;;;5079466;28;20444;-76
2022/08/22 05:04:16;;;;;;;4.70;4.23;;;14.70;99.90;;;;;;5085047;28;20416;-76
2022/08/22 05:06:48;;;;;;;7.70;5.03;;;14.60;99.90;;;;;;5077088;28;20454;-76
2022/08/22 05:09:19;;;;;;;7.90;4.20;;;14.60;99.90;;;;;;5074273;28;20466;-76
2022/08/22 05:11:50;;;;;;;9.00;4.53;;;14.80;99.90;;;;;;5074406;28;20396;-76
2022/08/22 05:14:36;;;;;;;8.07;4.73;;;14.90;99.90;;;;;;5074171;28;20739;-76
2022/08/22 05:17:04;;;;;;;6.40;4.23;;;15.00;99.90;;;;;;5074195;28;20422;-76
2022/08/22 05:19:33;;;;;;;8.90;4.30;;;15.00;99.90;;;;;;5073698;28;20412;-77
2022/08/22 05:22:00;;;;;;;8.03;4.40;;;15.10;99.90;;;;;;5072160;28;20441;-76
2022/08/22 05:24:36;;;;;;;7.73;4.00;;;15.20;99.90;;;;;;5073995;28;20406;-76
2022/08/22 05:27:15;;;;;;;10.33;4.53;;;15.20;99.90;;;;;;5073831;28;20868;-76
2022/08/22 05:29:44;;;;;;;6.23;4.53;;;15.20;99.90;;;;;;5073489;28;20417;-76
2022/08/22 05:32:24;;;;;;;6.70;4.33;;;15.30;99.90;;;;;;5073600;28;20492;-76
2022/08/22 05:34:54;;;;;;;6.13;4.70;;;15.30;99.90;;;;;;5074065;28;20418;-76
2022/08/22 05:37:41;;;;;;;5.93;4.83;;;15.20;99.90;;;;;;5073722;28;20469;-76
2022/08/22 05:40:14;;;;;;;5.10;3.70;;;15.30;99.90;;;;;;5073424;28;20747;-76
2022/08/22 05:42:40;;;;;;;12.03;5.07;;;15.30;99.90;;;;;;5073955;28;20377;-77
2022/08/22 05:45:07;;;;;;;5.33;4.50;;;15.30;99.90;;;;;;5073620;28;20446;-76
2022/08/22 05:47:38;;;;;;;7.20;4.83;;;15.30;99.90;;;;;;5073675;28;20187;-76
2022/08/22 05:50:24;;;;;;;5.63;4.40;;;15.40;99.90;;;;;;5071936;28;20438;-76
2022/08/22 05:53:08;;;;;;;12.20;5.20;;;15.50;99.90;;;;;;5073602;28;20485;-75
2022/08/22 05:55:46;;;;;;;7.90;5.20;;;15.60;99.90;;;;;;5073605;28;20394;-76
2022/08/22 05:58:42;;;;;;;10.47;5.90;;;15.60;99.90;;;;;;5073467;28;20498;-76
2022/08/22 06:01:19;;;;;;;8.23;5.20;;;15.70;99.90;;;;;;5072991;28;20480;-76
2022/08/22 06:03:50;;;;;;;7.47;4.63;;;15.70;99.90;;;;;;5073400;28;20415;-78
2022/08/22 06:06:18;;;;;;;15.07;5.20;;;15.80;99.90;;;;;;5072272;28;20422;-75
2022/08/22 06:09:01;;;;;;;9.73;5.23;;;15.90;99.90;;;;;;5072961;28;20398;-75
2022/08/22 06:11:41;;;;;;;8.83;4.47;;;15.90;99.90;;;;;;5072908;28;20453;-75
2022/08/22 06:14:24;;;;;;;7.80;5.17;;;16.00;99.90;;;;;;5073525;28;20781;-75
2022/08/22 06:16:58;;;;;;;5.27;4.30;;;16.20;99.90;;;;;;5073204;28;20462;-75
2022/08/22 06:19:25;;;;;;;8.63;4.83;;;16.40;99.90;;;;;;5073084;28;20435;-75
2022/08/22 06:21:54;;;;;;;9.60;5.30;;;16.40;99.90;;;;;;5071528;28;20447;-75
2022/08/22 06:24:23;;;;;;;9.43;4.67;;;16.40;99.90;;;;;;5073531;28;20377;-75
2022/08/22 06:26:52;;;;;;;10.47;5.20;;;16.40;99.90;;;;;;5073426;28;20412;-75
2022/08/22 06:29:48;;;;;;;11.03;5.67;;;16.50;99.90;;;;;;5073248;28;20821;-75
2022/08/22 06:32:21;;;;;;;9.00;5.83;;;16.50;99.90;;;;;;5069836;28;20450;-75
2022/08/22 06:34:48;;;;;;;9.30;5.23;;;16.40;99.90;;;;;;5071999;28;20422;-75
2022/08/22 06:37:22;;;;;;;9.90;6.07;;;16.60;99.90;;;;;;5073317;28;20521;-76
2022/08/22 06:39:52;;;;;;;9.73;5.63;;;16.70;99.90;;;;;;5073854;28;20496;-75
2022/08/22 06:42:28;;;;;;;12.60;5.50;;;16.70;99.90;;;;;;5073339;28;20446;-77
2022/08/22 06:45:12;;;;;;;8.33;6.13;;;16.80;99.90;;;;;;5073079;28;20462;-78
2022/08/22 06:47:44;;;;;;;10.20;5.63;;;16.90;99.90;;;;;;5072979;28;20499;-77
2022/08/22 06:50:19;;;;;;;8.33;5.70;;;17.00;99.90;;;;;;5072727;28;20390;-75
2022/08/22 06:52:52;;;;;;;8.33;5.77;;;17.20;99.90;;;;;;5073192;28;20383;-77
2022/08/22 06:55:21;;;;;;;9.53;5.90;;;17.20;99.90;;;;;;5072889;28;20394;-77
2022/08/22 06:57:57;;;;;;;8.60;5.93;;;17.40;99.90;;;;;;5072676;28;20525;-77
2022/08/22 07:00:24;;;;;;;10.23;5.43;;;17.50;99.90;;;;;;5072489;28;20406;-77
2022/08/22 07:03:09;;;;;;;8.10;6.40;;;17.60;99.90;;;;;;5072792;28;20473;-76
2022/08/22 07:05:39;;;;;;;10.00;5.87;;;17.60;99.90;;;;;;5072694;28;20408;-77
2022/08/22 07:08:10;;;;;;;9.33;4.73;;;17.80;99.90;;;;;;5072795;28;20469;-77
2022/08/22 07:10:54;;;;;;;11.50;6.03;;;18.00;99.90;;;;;;5072500;28;20436;-77
2022/08/22 07:13:20;;;;;;;13.90;5.50;;;18.20;99.90;;;;;;5072875;28;20407;-77
2022/08/22 07:15:53;;;;;;;7.60;4.30;;;18.40;99.90;;;;;;5072770;28;20415;-74
2022/08/22 07:18:22;;;;;;;6.03;4.70;;;18.50;99.90;;;;;;5072717;28;20988;-77
2022/08/22 07:20:54;;;;;;;10.13;5.10;;;18.70;99.90;;;;;;5074558;28;20423;-76
2022/08/22 07:23:46;;;;;;;8.17;5.10;;;18.80;99.90;;;;;;5076469;28;20402;-76
2022/08/22 07:26:47;;;;;;;10.33;5.20;;;18.90;99.90;;;;;;5076388;28;20390;-77
2022/08/22 07:29:26;;;;;;;8.80;4.20;;;19.00;99.90;;;;;;5076520;28;20407;-77
2022/08/22 07:32:07;;;;;;;10.20;4.90;;;19.20;99.90;;;;;;5075790;28;20442;-77
2022/08/22 07:35:05;;;;;;;7.23;4.77;;;19.20;99.90;;;;;;5076401;28;20377;-77
2022/08/22 07:37:50;;;;;;;9.90;4.97;;;19.40;99.90;;;;;;5074869;28;20537;-76
2022/08/22 07:40:30;;;;;;;9.93;5.00;;;19.60;99.90;;;;;;5076128;28;20431;-76
2022/08/22 07:43:11;;;;;;;11.87;5.03;;;19.70;99.90;;;;;;5076296;28;20414;-76
2022/08/22 07:45:41;;;;;;;11.70;4.70;;;19.90;99.90;;;;;;5076117;28;20910;-77
2022/08/22 07:48:26;;;;;;;5.50;4.00;;;20.00;99.90;;;;;;5075778;28;20920;-77
2022/08/22 07:51:00;;;;;;;7.77;4.10;;;20.10;99.90;;;;;;5075138;28;20464;-78
2022/08/22 07:53:42;;;;;;;8.70;4.60;;;20.30;99.90;;;;;;5075876;28;20418;-78
2022/08/22 07:56:20;;;;;;;9.80;4.77;;;20.50;99.90;;;;;;5075682;28;20803;-77
2022/08/22 07:58:52;;;;;;;7.97;4.10;;;20.90;99.90;;;;;;5075830;28;20464;-77
2022/08/22 08:01:21;;;;;;;6.00;3.30;;;21.20;99.90;;;;;;5080417;28;20431;-77
2022/08/22 08:03:55;;;;;;;5.30;2.97;;;21.60;99.90;;;;;;5086576;28;20541;-78
2022/08/22 08:06:23;;;;;;;7.43;3.10;;;21.80;99.90;;;;;;5082694;28;20403;-78
2022/08/22 08:08:50;;;;;;;9.23;3.10;;;22.10;99.90;;;;;;5077601;28;20431;-78
2022/08/22 08:11:17;;;;;;;10.57;2.90;;;22.40;99.90;;;;;;5073715;28;20418;-77
2022/08/22 08:13:48;;;;;;;6.90;2.70;;;22.60;99.90;;;;;;5075339;28;20435;-78
2022/08/22 08:16:21;;;;;;;9.30;2.67;;;22.90;99.90;;;;;;5075352;28;20427;-78
2022/08/22 08:18:49;;;;;;;7.00;2.30;;;23.30;99.90;;;;;;5075358;28;20462;-78
2022/08/22 08:21:28;;;;;;;7.10;2.90;;;23.60;99.90;;;;;;5075040;28;20436;-78
2022/08/22 08:23:54;;;;;;;6.00;2.77;;;24.40;99.90;;;;;;5075151;28;20504;-79
2022/08/22 08:26:26;;;;;;;5.13;2.60;;;24.70;99.90;;;;;;5082812;28;20414;-79
2022/08/22 08:28:55;;;;;;;9.93;2.20;;;25.00;99.90;;;;;;5080344;28;20439;-80
2022/08/22 08:31:30;;;;;;;3.50;1.93;;;25.20;99.90;;;;;;5074390;28;20517;-78
2022/08/22 08:34:19;;;;;;;5.90;2.47;;;25.20;99.90;;;;;;5073908;28;20494;-76
2022/08/22 08:37:09;;;;;;;2.87;1.90;;;25.40;99.90;;;;;;5084087;28;20564;-76
2022/08/22 08:39:56;;;;;;;3.50;2.67;;;25.50;99.90;;;;;;5082346;28;20414;-79
2022/08/22 08:43:25;;;;;;;5.80;2.00;;;25.50;99.90;;;;;;5082316;28;20415;-79
2022/08/22 08:45:36;;;;;;;2.70;1.67;;;25.50;99.90;;;;;;5074545;28;20946;-79
2022/08/22 08:48:17;;;;;;;3.33;1.83;;;25.70;99.90;;;;;;5077187;28;20760;-79
2022/08/22 08:51:11;;;;;;;5.70;2.90;;;25.90;99.90;;;;;;5074331;28;20438;-79
2022/08/22 08:54:08;;;;;;;4.33;2.30;;;26.00;99.90;;;;;;5043264;28;20419;-78
2022/08/22 08:56:58;;;;;;;3.03;1.90;;;26.30;99.90;;;;;;5072939;28;20455;-79
2022/08/22 08:59:43;;;;;;;4.47;2.10;;;26.30;99.90;;;;;;5074443;28;20789;-78
2022/08/22 09:02:44;;;;;;;6.40;2.40;;;26.50;99.90;;;;;;5074142;28;20439;-78
2022/08/22 09:05:43;;;;;;;7.60;2.17;;;26.60;99.90;;;;;;5042531;28;20438;-78
2022/08/22 09:08:50;;;;;;;4.33;2.03;;;26.90;99.90;;;;;;5074218;28;20408;-79
2022/08/22 09:11:34;;;;;;;6.73;2.30;;;27.60;99.90;;;;;;5044993;28;20439;-77
2022/08/22 09:14:25;;;;;;;5.60;2.27;;;28.10;99.90;;;;;;5073835;28;20560;-77
2022/08/22 09:17:30;;;;;;;4.10;1.93;;;28.00;99.90;;;;;;5073883;28;20450;-77
2022/08/22 09:20:46;;;;;;;2.57;1.93;;;29.00;99.90;;;;;;5091389;28;20446;-77
2022/08/22 09:23:53;;;;;;;6.70;1.93;;;29.80;99.90;;;;;;5094464;28;20445;-77
2022/08/22 09:26:44;;;;;;;5.30;2.70;;;30.50;99.90;;;;;;5094224;28;20452;-77
2022/08/22 09:29:47;;;;;;;4.93;2.30;;;31.00;99.90;;;;;;5093834;28;20507;-75
2022/08/22 09:32:27;;;;;;;4.60;2.23;;;31.10;99.20;;;;;;5093959;28;20461;-76
2022/08/22 09:35:12;;;;;;;4.83;2.00;;;30.10;97.20;;;;;;5093938;28;20410;-76
2022/08/22 09:37:47;;;;;;;2.60;1.83;;;29.10;98.80;;;;;;5092634;28;20470;-75
2022/08/22 09:40:27;;;;;;;4.40;2.07;;;29.00;99.90;;;;;;5079167;28;20442;-75
2022/08/22 10:55:21;;;;;;;5.10;2.13;;;29.40;91.20;;;;;;5110561;27;20314;-76
2022/08/22 10:58:07;;;;;;;6.23;2.70;;;29.00;91.90;;;;;;5110783;28;20818;-76
2022/08/22 11:00:52;;;;;;;5.57;2.43;;;29.00;91.50;;;;;;5109841;28;20441;-76
2022/08/22 11:03:40;;;;;;;3.97;2.30;;;28.70;91.70;;;;;;5110596;28;20413;-75
2022/08/22 11:06:13;;;;;;;5.83;2.47;;;29.00;91.70;;;;;;5110441;28;20406;-76
2022/08/22 11:08:47;;;;;;;3.07;2.37;;;30.10;90.00;;;;;;5110217;28;20916;-75
2022/08/22 11:11:17;;;;;;;6.90;2.27;;;29.50;90.00;;;;;;5110194;28;20507;-75
2022/08/22 11:14:20;;;;;;;7.03;2.47;;;29.50;89.60;;;;;;5109928;28;20449;-76
2022/08/22 11:16:54;;;;;;;4.17;2.37;;;29.20;91.00;;;;;;5110141;28;20784;-76
2022/08/22 11:19:53;;;;;;;5.40;2.73;;;29.80;89.50;;;;;;5110151;28;20732;-76
2022/08/22 11:22:43;;;;;;;3.87;2.20;;;29.90;85.30;;;;;;5109462;28;20460;-75
2022/08/22 11:25:14;;;;;;;4.63;2.50;;;30.10;86.90;;;;;;5110007;28;20429;-75
2022/08/22 11:28:01;;;;;;;6.07;2.30;;;29.60;88.40;;;;;;5109786;28;20517;-76
2022/08/22 11:30:39;;;;;;;3.70;2.00;;;30.60;84.80;;;;;;5109789;28;20422;-75
2022/08/22 11:33:21;;;;;;;2.93;2.33;;;30.90;83.60;;;;;;5109795;28;20459;-75
2022/08/22 11:35:58;;;;;;;7.27;2.83;;;31.30;82.40;;;;;;5109705;28;20401;-76
2022/08/22 11:38:56;;;;;;;4.00;2.20;;;32.10;80.90;;;;;;5109227;28;20421;-77
2022/08/22 11:41:38;;;;;;;5.17;2.27;;;32.00;78.20;;;;;;5102702;28;20414;-76
2022/08/22 11:44:26;;;;;;;3.90;1.70;;;31.70;78.70;;;;;;5097749;28;20442;-75
2022/08/22 11:46:56;;;;;;;6.03;2.80;;;32.80;75.80;;;;;;5098740;28;20491;-76
2022/08/22 11:49:33;;;;;;;4.13;2.27;;;32.70;75.00;;;;;;5096312;28;20964;-76
2022/08/22 11:52:29;;;;;;;4.60;2.10;;;33.10;71.70;;;;;;5090615;28;20495;-75
2022/08/22 11:55:02;;;;;;;4.57;2.30;;;33.10;71.20;;;;;;5102616;28;20434;-76
2022/08/22 11:57:38;;;;;;;2.63;1.60;;;33.30;70.80;;;;;;5095879;28;20505;-76
2022/08/22 12:00:22;;;;;;;3.17;1.93;;;33.60;69.20;;;;;;5095961;28;20414;-75
2022/08/22 12:03:25;;;;;;;3.63;2.20;;;33.60;68.40;;;;;;5095861;28;20458;-76
2022/08/22 12:06:06;;;;;;;7.90;2.30;;;34.00;67.90;;;;;;5095254;28;20403;-76
2022/08/22 12:08:32;;;;;;;6.53;2.10;;;34.10;68.00;;;;;;5095794;28;20428;-76
2022/08/22 12:11:35;;;;;;;3.97;2.03;;;34.50;66.00;;;;;;5095568;28;20406;-76
2022/08/22 12:14:13;;;;;;;5.03;2.07;;;34.20;64.90;;;;;;5023290;28;20221;-76
2022/08/22 12:17:00;;;;;;;5.00;2.20;;;34.00;64.50;;;;;;5095512;28;20426;-76
2022/08/22 12:19:44;;;;;;;3.70;2.80;;;33.40;65.70;;;;;;5095755;28;20769;-76
2022/08/22 12:22:51;;;;;;;4.13;1.97;;;32.90;63.60;;;;;;5095808;28;20898;-75
2022/08/22 12:25:40;;;;;;;6.40;2.20;;;32.30;67.20;;;;;;5095121;28;20410;-75
2022/08/22 12:28:31;;;;;;;7.67;2.07;;;31.90;66.00;;;;;;5095383;28;20460;-75
2022/08/22 12:31:05;;;;;;;5.33;2.20;;;31.80;68.30;;;;;;5095199;28;20413;-76
2022/08/22 12:34:05;;;;;;;4.40;2.10;;;32.10;68.10;;;;;;5095334;28;20458;-75
2022/08/22 12:36:42;;;;;;;4.83;2.30;;;32.60;66.40;;;;;;5095199;28;20485;-75
2022/08/22 12:39:46;;;;;;;4.03;2.23;;;33.20;66.90;;;;;;5095081;28;20972;-76
2022/08/22 12:42:17;;;;;;;3.80;1.97;;;33.20;65.50;;;;;;5063932;28;20425;-75
2022/08/22 12:45:04;;;;;;;4.37;1.83;;;33.30;63.20;;;;;;5094774;28;20418;-75
2022/08/22 12:47:59;;;;;;;3.60;2.10;;;33.10;65.50;;;;;;5094797;28;20503;-76
2022/08/22 12:51:01;;;;;;;3.47;1.90;;;32.50;64.60;;;;;;5095132;28;20429;-75
2022/08/22 12:54:04;;;;;;;6.80;2.13;;;32.90;63.70;;;;;;5094618;28;20468;-78
2022/08/22 12:56:48;;;;;;;5.27;2.17;;;32.50;63.10;;;;;;5095046;28;20408;-76
2022/08/22 12:59:31;;;;;;;6.43;2.50;;;32.40;64.00;;;;;;5094591;28;20412;-76
2022/08/22 13:01:59;;;;;;;2.97;1.90;;;31.80;64.40;;;;;;5093584;28;20434;-76
2022/08/22 13:04:30;;;;;;;5.00;2.53;;;31.30;67.90;;;;;;5094669;28;20409;-76
2022/08/22 13:07:31;;;;;;;4.03;2.10;;;31.40;66.80;;;;;;5093910;28;20968;-75
2022/08/22 13:10:34;;;;;;;5.37;2.53;;;31.40;65.90;;;;;;5093504;28;20785;-76
2022/08/22 13:13:01;;;;;;;3.67;2.00;;;31.30;66.50;;;;;;5090601;28;20941;-77
2022/08/22 13:15:31;;;;;;;4.13;2.20;;;31.60;66.40;;;;;;5095275;28;20424;-76
2022/08/22 13:18:00;;;;;;;5.40;2.10;;;31.80;65.80;;;;;;5094554;28;20479;-77
2022/08/22 13:20:41;;;;;;;4.90;2.53;;;32.10;64.40;;;;;;5093373;28;20497;-77
2022/08/22 13:23:26;;;;;;;4.63;2.03;;;32.20;63.90;;;;;;5094830;28;20414;-76
2022/08/22 13:26:14;;;;;;;5.17;2.43;;;32.20;63.80;;;;;;5094833;28;20406;-77
2022/08/22 13:28:47;;;;;;;2.57;2.03;;;32.70;64.00;;;;;;5095047;28;20529;-77
2022/08/22 13:31:37;;;;;;;4.80;2.17;;;32.70;62.10;;;;;;5094768;28;20394;-77
2022/08/22 13:34:25;;;;;;;4.53;2.33;;;32.90;63.60;;;;;;5094162;28;20499;-77
2022/08/22 13:36:57;;;;;;;4.00;2.13;;;33.40;62.30;;;;;;5093179;28;20541;-78
2022/08/22 13:39:27;;;;;;;3.23;1.90;;;33.90;60.30;;;;;;5094301;28;20418;-77
2022/08/22 13:41:56;;;;;;;4.83;2.57;;;34.00;59.00;;;;;;5093142;28;20414;-77
2022/08/22 13:44:45;;;;;;;5.37;2.37;;;33.20;59.60;;;;;;5094059;28;20882;-77
2022/08/22 13:47:16;;;;;;;3.50;2.17;;;32.10;60.10;;;;;;5094210;28;20430;-77
2022/08/22 13:49:51;;;;;;;2.93;2.10;;;31.60;63.60;;;;;;5093133;28;20422;-77
2022/08/22 13:52:46;;;;;;;3.00;2.47;;;31.60;64.00;;;;;;5092988;28;20414;-77
2022/08/22 13:55:32;;;;;;;3.40;1.70;;;31.80;65.10;;;;;;5094179;28;20460;-77
2022/08/22 13:58:17;;;;;;;4.00;1.87;;;31.80;63.10;;;;;;5092805;28;20776;-76
2022/08/22 14:01:04;;;;;;;3.23;2.03;;;32.10;64.30;;;;;;5094155;28;20426;-76
2022/08/22 14:03:44;;;;;;;7.87;2.37;;;32.20;64.00;;;;;;5092446;28;20414;-77
2022/08/22 14:06:36;;;;;;;6.57;2.57;;;32.10;65.00;;;;;;5093896;28;20398;-77
2022/08/22 14:09:19;;;;;;;3.57;1.97;;;32.70;65.50;;;;;;5094182;28;20438;-77
2022/08/22 14:11:50;;;;;;;5.10;2.23;;;33.40;63.10;;;;;;5094085;28;20417;-75
2022/08/22 14:14:26;;;;;;;3.10;1.90;;;33.10;61.30;;;;;;5093585;28;20542;-74
2022/08/22 14:16:54;;;;;;;2.73;2.00;;;33.30;62.10;;;;;;5093763;28;20422;-74
2022/08/22 14:19:33;;;;;;;3.73;2.10;;;33.30;60.70;;;;;;5093613;28;20414;-75
2022/08/22 14:22:15;;;;;;;3.23;1.87;;;33.20;60.70;;;;;;5092806;28;20790;-75
2022/08/22 14:24:43;;;;;;;4.40;2.33;;;32.90;62.20;;;;;;5093263;28;20450;-74
2022/08/22 14:27:25;;;;;;;3.60;2.33;;;33.30;59.60;;;;;;5093890;28;20469;-74
2022/08/22 14:29:54;;;;;;;4.20;1.90;;;33.60;61.90;;;;;;5093487;28;20429;-75
2022/08/22 14:32:20;;;;;;;4.30;2.30;;;34.20;59.30;;;;;;5094698;28;20414;-75
2022/08/22 14:34:58;;;;;;;5.53;2.13;;;34.50;59.40;;;;;;5096579;28;20817;-74
2022/08/22 14:37:39;;;;;;;7.10;2.03;;;34.70;58.00;;;;;;5094750;28;20187;-74
2022/08/22 14:40:21;;;;;;;3.33;2.10;;;35.10;58.20;;;;;;5094379;28;20421;-74
2022/08/22 14:42:53;;;;;;;3.73;1.90;;;35.60;57.50;;;;;;5094434;28;20404;-75
2022/08/22 14:45:20;;;;;;;4.20;1.60;;;35.70;56.40;;;;;;5094194;28;20485;-75
2022/08/22 14:48:07;;;;;;;4.50;1.90;;;35.50;55.40;;;;;;5094308;28;20426;-74
2022/08/22 14:50:42;;;;;;;7.40;2.47;;;34.80;56.00;;;;;;5093083;28;20432;-75
2022/08/22 14:53:10;;;;;;;3.40;1.90;;;34.70;55.70;;;;;;5094635;28;20830;-75
2022/08/22 14:55:36;;;;;;;4.00;2.43;;;33.40;56.90;;;;;;5094499;28;20406;-74
2022/08/22 14:58:14;;;;;;;4.50;2.00;;;33.40;58.60;;;;;;5091360;28;20546;-74
2022/08/22 15:00:43;;;;;;;5.30;2.27;;;33.20;58.90;;;;;;5079199;28;20530;-74
2022/08/22 15:03:19;;;;;;;4.67;2.63;;;32.90;59.20;;;;;;5072697;28;20460;-75
2022/08/22 15:05:51;;;;;;;4.23;1.97;;;32.50;59.60;;;;;;5071174;28;20422;-75
2022/08/22 15:08:36;;;;;;;5.80;2.30;;;32.70;60.50;;;;;;5072452;28;20431;-74
2022/08/22 15:11:26;;;;;;;4.00;2.17;;;32.30;60.40;;;;;;5074101;28;20411;-74
2022/08/22 15:13:57;;;;;;;3.27;1.90;;;32.20;59.60;;;;;;5073760;28;20541;-74
2022/08/22 15:16:36;;;;;;;6.03;2.67;;;32.50;58.70;;;;;;5074210;28;20549;-75